Terminal Aerodrome Forecast
Issued by NWS

Home | Current Version | Previous Version | Graphics & Text | Print | Product List | Glossary On
Versions: 1 2 3 4 5 6 7 8 9 10 11 12 13 14
704
FTUS43 KGRB 252326
TAFMTW
TAF
KMTW 252326Z 2600/2624 16010KT P6SM SCT050
     FM260100 21005KT P6SM -TSRA BKN040CB
      TEMPO 2601/2603 4SM -TSRA BKN025CB
     FM260300 23003KT P6SM -TSRA BKN040CB
     FM260700 25004KT P6SM SCT080
      TEMPO 2609/2612 5SM BR
     FM261600 21007KT P6SM SCT035=

USA.gov is the U.S. government's official web portal to all federal, state and local government web resources and services.